0113 UTC 23 July 2014 found at http://aviationweather.gov/adds/metars/
 
METAR text: KAFF 230058Z AUTO VRB06KT 10SM CLR 29/08 A3039 RMK AO2 SLP196 T02910084
Conditions at: KAFF (USAF ACADEMY/COS, CO, US) observed 0058 UTC 23 July 2014
Temperature: 29.1°C (84°F)
Dewpoint: 8.4°C (47°F) [RH = 27%]
Pressure (altimeter): 30.39 inches Hg (1029.2 mb[Sea-level pressure: 1019.6 mb]
Winds: variable direction winds at 7 MPH (6 knots; 3.1 m/s)
Visibility: 10 or more miles (16+ km)
Ceiling: at least 12,000 feet AGL
Clouds: sky clear below 12,000 feet AGL
Weather: automated observation with no human augmentation;
there may or may not be significant weather present at this time

METAR text: KAFF 222358Z AUTO 13004KT 10SM CLR 28/10 A3038 RMK AO2 SLP199 T02760104 10309 20276 57008
Conditions at: KAFF (USAF ACADEMY/COS, CO, US) observed 2358 UTC 22 July 2014
Temperature: 27.6°C (82°F)
Dewpoint: 10.4°C (51°F) [RH = 34%]
Pressure (altimeter): 30.38 inches Hg (1028.9 mb[Sea-level pressure: 1019.9 mb]
Winds: from the SE (130 degrees) at 5 MPH (4 knots; 2.1 m/s)
Visibility: 10 or more miles (16+ km)
Ceiling: at least 12,000 feet AGL
Clouds: sky clear below 12,000 feet AGL
Weather: automated observation with no human augmentation;
there may or may not be significant weather present at this time

METAR text: KAFF 222258Z AUTO 19005KT 10SM FEW180 28/07 A3038 RMK AO2 SLP196 T02810072
Conditions at: KAFF (USAF ACADEMY/COS, CO, US) observed 2258 UTC 22 July 2014
Temperature: 28.1°C (83°F)
Dewpoint: 7.2°C (45°F) [RH = 27%]
Pressure (altimeter): 30.38 inches Hg (1028.9 mb[Sea-level pressure: 1019.6 mb]
Winds: from the S (190 degrees) at 6 MPH (5 knots; 2.6 m/s)
Visibility: 10 or more miles (16+ km)
Ceiling: at least 12,000 feet AGL
Clouds: few clouds at 18000 feet AGL
Weather: automated observation with no human augmentation;
there may or may not be significant weather present at this time

METAR text: KAFF 222158Z AUTO 15008KT 10SM CLR 30/04 A3039 RMK AO2 SLP200 T02950036
Conditions at: KAFF (USAF ACADEMY/COS, CO, US) observed 2158 UTC 22 July 2014
Temperature: 29.5°C (85°F)
Dewpoint: 3.6°C (38°F) [RH = 19%]
Pressure (altimeter): 30.39 inches Hg (1029.2 mb[Sea-level pressure: 1020.0 mb]
Winds: from the SSE (150 degrees) at 9 MPH (8 knots; 4.2 m/s)
Visibility: 10 or more miles (16+ km)
Ceiling: at least 12,000 feet AGL
Clouds: sky clear below 12,000 feet AGL
Weather: automated observation with no human augmentation;
there may or may not be significant weather present at this time

METAR text: KAFF 222132Z AUTO 15012KT 10SM CLR 30/06 A3040 RMK AO2 WSHFT 29
Conditions at: KAFF (USAF ACADEMY/COS, CO, US) observed 2132 UTC 22 July 2014
Temperature: 30.0°C (86°F)
Dewpoint: 6.0°C (43°F) [RH = 22%]
Pressure (altimeter): 30.40 inches Hg (1029.5 mb)
Winds: from the SSE (150 degrees) at 14 MPH (12 knots; 6.2 m/s)
Visibility: 10 or more miles (16+ km)
Ceiling: at least 12,000 feet AGL
Clouds: sky clear below 12,000 feet AGL
Weather: automated observation with no human augmentation;
there may or may not be significant weather present at this time

METAR text: KAFF 222058Z 10009KT 10SM FEW170 30/07 A3040 RMK AO2A SLP197 T02950069 55002
Conditions at: KAFF (USAF ACADEMY/COS, CO, US) observed 2058 UTC 22 July 2014
Temperature: 29.5°C (85°F)
Dewpoint: 6.9°C (44°F) [RH = 24%]
Pressure (altimeter): 30.40 inches Hg (1029.5 mb[Sea-level pressure: 1019.7 mb]
Winds: from the E (100 degrees) at 10 MPH (9 knots; 4.7 m/s)
Visibility: 10 or more miles (16+ km)
Ceiling: at least 12,000 feet AGL
Clouds: few clouds at 17000 feet AGL
Weather: no significant weather observed at this time

METAR text: KAFF 222028Z 08014G18KT 10SM CLR 30/09 A3039 RMK AO2A WSHFT 26
Conditions at: KAFF (USAF ACADEMY/COS, CO, US) observed 2028 UTC 22 July 2014
Temperature: 30.0°C (86°F)
Dewpoint: 9.0°C (48°F) [RH = 27%]
Pressure (altimeter): 30.39 inches Hg (1029.2 mb)
Winds: from the E (80 degrees) at 16 MPH (14 knots; 7.3 m/sgusting to 21 MPH (18 knots; 9.4 m/s)
Visibility: 10 or more miles (16+ km)
Ceiling: at least 12,000 feet AGL
Clouds: sky clear below 12,000 feet AGL
Weather: no significant weather observed at this time

METAR text: KAFF 221958Z VRB06KT 10SM FEW200 31/06 A3039 RMK AO2A SLP193 T03080060
Conditions at: KAFF (USAF ACADEMY/COS, CO, US) observed 1958 UTC 22 July 2014
Temperature: 30.8°C (87°F)
Dewpoint: 6.0°C (43°F) [RH = 21%]
Pressure (altimeter): 30.39 inches Hg (1029.2 mb[Sea-level pressure: 1019.3 mb]
Winds: variable direction winds at 7 MPH (6 knots; 3.1 m/s)
Visibility: 10 or more miles (16+ km)
Ceiling: at least 12,000 feet AGL
Clouds: few clouds at 20000 feet AGL
Weather: no significant weather observed at this time

METAR text: KAFF 221858Z 32007KT 10SM FEW200 30/07 A3039 RMK AO2A SLP196 T02970074
Conditions at: KAFF (USAF ACADEMY/COS, CO, US) observed 1858 UTC 22 July 2014
Temperature: 29.7°C (85°F)
Dewpoint: 7.4°C (45°F) [RH = 25%]
Pressure (altimeter): 30.39 inches Hg (1029.2 mb[Sea-level pressure: 1019.6 mb]
Winds: from the NW (320 degrees) at 8 MPH (7 knots; 3.6 m/s)
Visibility: 10 or more miles (16+ km)
Ceiling: at least 12,000 feet AGL
Clouds: few clouds at 20000 feet AGL
Weather: no significant weather observed at this time

METAR text: KAFF 221758Z 35011KT 10SM CLR 29/08 A3040 RMK AO2A SLP197 T02850082 10290 20114 50005
Conditions at: KAFF (USAF ACADEMY/COS, CO, US) observed 1758 UTC 22 July 2014
Temperature: 28.5°C (83°F)
Dewpoint: 8.2°C (47°F) [RH = 28%]
Pressure (altimeter): 30.40 inches Hg (1029.5 mb[Sea-level pressure: 1019.7 mb]
Winds: from the N (350 degrees) at 13 MPH (11 knots; 5.7 m/s)
Visibility: 10 or more miles (16+ km)
Ceiling: at least 12,000 feet AGL
Clouds: sky clear below 12,000 feet AGL
Weather: no significant weather observed at this time

METAR text: KAFF 221658Z AUTO 01009KT 10SM CLR 28/08 A3040 RMK AO2 SLP197 T02840075
Conditions at: KAFF (USAF ACADEMY/COS, CO, US) observed 1658 UTC 22 July 2014
Temperature: 28.4°C (83°F)
Dewpoint: 7.5°C (46°F) [RH = 27%]
Pressure (altimeter): 30.40 inches Hg (1029.5 mb[Sea-level pressure: 1019.7 mb]
Winds: from the N (10 degrees) at 10 MPH (9 knots; 4.7 m/s)
Visibility: 10 or more miles (16+ km)
Ceiling: at least 12,000 feet AGL
Clouds: sky clear below 12,000 feet AGL
Weather: automated observation with no human augmentation;
there may or may not be significant weather present at this time

METAR text: KAFF 221558Z AUTO 34012KT 10SM CLR 28/07 A3039 RMK AO2 SLP193 T02760074
Conditions at: KAFF (USAF ACADEMY/COS, CO, US) observed 1558 UTC 22 July 2014
Temperature: 27.6°C (82°F)
Dewpoint: 7.4°C (45°F) [RH = 28%]
Pressure (altimeter): 30.39 inches Hg (1029.2 mb[Sea-level pressure: 1019.3 mb]
Winds: from the NNW (340 degrees) at 14 MPH (12 knots; 6.2 m/s)
Visibility: 10 or more miles (16+ km)
Ceiling: at least 12,000 feet AGL
Clouds: sky clear below 12,000 feet AGL
Weather: automated observation with no human augmentation;
there may or may not be significant weather present at this time

METAR text: KAFF 221458Z AUTO 36010KT 10SM CLR 27/07 A3038 RMK AO2 SLP183 T02710071 51005
Conditions at: KAFF (USAF ACADEMY/COS, CO, US) observed 1458 UTC 22 July 2014
Temperature: 27.1°C (81°F)
Dewpoint: 7.1°C (45°F) [RH = 28%]
Pressure (altimeter): 30.38 inches Hg (1028.9 mb[Sea-level pressure: 1018.3 mb]
Winds: from the N (360 degrees) at 12 MPH (10 knots; 5.2 m/s)
Visibility: 10 or more miles (16+ km)
Ceiling: at least 12,000 feet AGL
Clouds: sky clear below 12,000 feet AGL
Weather: automated observation with no human augmentation;
there may or may not be significant weather present at this time

METAR text: KAFF 221358Z AUTO 02006KT 10SM CLR 21/09 A3036 RMK AO2 SLP183 T02100093
Conditions at: KAFF (USAF ACADEMY/COS, CO, US) observed 1358 UTC 22 July 2014
Temperature: 21.0°C (70°F)
Dewpoint: 9.3°C (49°F) [RH = 47%]
Pressure (altimeter): 30.36 inches Hg (1028.2 mb[Sea-level pressure: 1018.3 mb]
Winds: from the NNE (20 degrees) at 7 MPH (6 knots; 3.1 m/s)
Visibility: 10 or more miles (16+ km)
Ceiling: at least 12,000 feet AGL
Clouds: sky clear below 12,000 feet AGL
Weather: automated observation with no human augmentation;
there may or may not be significant weather present at this time

METAR text: KAFF 221258Z AUTO 01008KT 10SM CLR 14/08 A3036 RMK AO2 SLP192 T01390080
Conditions at: KAFF (USAF ACADEMY/COS, CO, US) observed 1258 UTC 22 July 2014
Temperature: 13.9°C (57°F)
Dewpoint: 8.0°C (46°F) [RH = 68%]
Pressure (altimeter): 30.36 inches Hg (1028.2 mb[Sea-level pressure: 1019.2 mb]
Winds: from the N (10 degrees) at 9 MPH (8 knots; 4.2 m/s)
Visibility: 10 or more miles (16+ km)
Ceiling: at least 12,000 feet AGL
Clouds: sky clear below 12,000 feet AGL
Weather: automated observation with no human augmentation;
there may or may not be significant weather present at this time

METAR text: KAFF 221158Z AUTO 35009KT 10SM CLR 12/08 A3035 RMK AO2 SLP189 T01170075 10155 20117 51007
Conditions at: KAFF (USAF ACADEMY/COS, CO, US) observed 1158 UTC 22 July 2014
Temperature: 11.7°C (53°F)
Dewpoint: 7.5°C (46°F) [RH = 75%]
Pressure (altimeter): 30.35 inches Hg (1027.9 mb[Sea-level pressure: 1018.9 mb]
Winds: from the N (350 degrees) at 10 MPH (9 knots; 4.7 m/s)
Visibility: 10 or more miles (16+ km)
Ceiling: at least 12,000 feet AGL
Clouds: sky clear below 12,000 feet AGL
Weather: automated observation with no human augmentation;
there may or may not be significant weather present at this time

METAR text: KAFF 221058Z AUTO 36008KT 10SM CLR 13/07 A3034 RMK AO2 SLP179 T01260071
Conditions at: KAFF (USAF ACADEMY/COS, CO, US) observed 1058 UTC 22 July 2014
Temperature: 12.6°C (55°F)
Dewpoint: 7.1°C (45°F) [RH = 69%]
Pressure (altimeter): 30.34 inches Hg (1027.5 mb[Sea-level pressure: 1017.9 mb]
Winds: from the N (360 degrees) at 9 MPH (8 knots; 4.2 m/s)
Visibility: 10 or more miles (16+ km)
Ceiling: at least 12,000 feet AGL
Clouds: sky clear below 12,000 feet AGL
Weather: automated observation with no human augmentation;
there may or may not be significant weather present at this time

METAR text: KAFF 220958Z AUTO 01004KT 10SM CLR 13/08 A3034 RMK AO2 SLP182 T01260077
Conditions at: KAFF (USAF ACADEMY/COS, CO, US) observed 0958 UTC 22 July 2014
Temperature: 12.6°C (55°F)
Dewpoint: 7.7°C (46°F) [RH = 72%]
Pressure (altimeter): 30.34 inches Hg (1027.5 mb[Sea-level pressure: 1018.2 mb]
Winds: from the N (10 degrees) at 5 MPH (4 knots; 2.1 m/s)
Visibility: 10 or more miles (16+ km)
Ceiling: at least 12,000 feet AGL
Clouds: sky clear below 12,000 feet AGL
Weather: automated observation with no human augmentation;
there may or may not be significant weather present at this time

METAR text: KAFF 220858Z AUTO VRB05KT 10SM CLR 15/06 A3032 RMK AO2 SLP169 T01450061 53002
Conditions at: KAFF (USAF ACADEMY/COS, CO, US) observed 0858 UTC 22 July 2014
Temperature: 14.5°C (58°F)
Dewpoint: 6.1°C (43°F) [RH = 57%]
Pressure (altimeter): 30.32 inches Hg (1026.8 mb[Sea-level pressure: 1016.9 mb]
Winds: variable direction winds at 6 MPH (5 knots; 2.6 m/s)
Visibility: 10 or more miles (16+ km)
Ceiling: at least 12,000 feet AGL
Clouds: sky clear below 12,000 feet AGL
Weather: automated observation with no human augmentation;
there may or may not be significant weather present at this time

METAR text: KAFF 220758Z AUTO 36009KT 10SM CLR 14/08 A3031 RMK AO2 SLP168 T01380077
Conditions at: KAFF (USAF ACADEMY/COS, CO, US) observed 0758 UTC 22 July 2014
Temperature: 13.8°C (57°F)
Dewpoint: 7.7°C (46°F) [RH = 67%]
Pressure (altimeter): 30.31 inches Hg (1026.5 mb[Sea-level pressure: 1016.8 mb]
Winds: from the N (360 degrees) at 10 MPH (9 knots; 4.7 m/s)
Visibility: 10 or more miles (16+ km)
Ceiling: at least 12,000 feet AGL
Clouds: sky clear below 12,000 feet AGL
Weather: automated observation with no human augmentation;
there may or may not be significant weather present at this time

METAR text: KAFF 220658Z AUTO 36007KT 10SM CLR 15/08 A3031 RMK AO2 SLP168 T01450082 403060137
Conditions at: KAFF (USAF ACADEMY/COS, CO, US) observed 0658 UTC 22 July 2014
Temperature: 14.5°C (58°F)
Dewpoint: 8.2°C (47°F) [RH = 66%]
Pressure (altimeter): 30.31 inches Hg (1026.5 mb[Sea-level pressure: 1016.8 mb]
Winds: from the N (360 degrees) at 8 MPH (7 knots; 3.6 m/s)
Visibility: 10 or more miles (16+ km)
Ceiling: at least 12,000 feet AGL
Clouds: sky clear below 12,000 feet AGL
Weather: automated observation with no human augmentation;
there may or may not be significant weather present at this time

METAR text: KAFF 220558Z AUTO 34007KT 10SM FEW130 16/09 A3031 RMK AO2 SLP165 T01560088 10281 20151 52012
Conditions at: KAFF (USAF ACADEMY/COS, CO, US) observed 0558 UTC 22 July 2014
Temperature: 15.6°C (60°F)
Dewpoint: 8.8°C (48°F) [RH = 64%]
Pressure (altimeter): 30.31 inches Hg (1026.5 mb[Sea-level pressure: 1016.5 mb]
Winds: from the NNW (340 degrees) at 8 MPH (7 knots; 3.6 m/s)
Visibility: 10 or more miles (16+ km)
Ceiling: at least 12,000 feet AGL
Clouds: few clouds at 13000 feet AGL
Weather: automated observation with no human augmentation;
there may or may not be significant weather present at this time

METAR text: KAFF 220458Z AUTO 34008KT 10SM CLR 16/09 A3030 RMK AO2 SLP165 T01570087
Conditions at: KAFF (USAF ACADEMY/COS, CO, US) observed 0458 UTC 22 July 2014
Temperature: 15.7°C (60°F)
Dewpoint: 8.7°C (48°F) [RH = 63%]
Pressure (altimeter): 30.30 inches Hg (1026.2 mb[Sea-level pressure: 1016.5 mb]
Winds: from the NNW (340 degrees) at 9 MPH (8 knots; 4.2 m/s)
Visibility: 10 or more miles (16+ km)
Ceiling: at least 12,000 feet AGL
Clouds: sky clear below 12,000 feet AGL
Weather: automated observation with no human augmentation;
there may or may not be significant weather present at this time

METAR text: KAFF 220358Z AUTO 35008KT 10SM CLR 18/10 A3028 RMK AO2 SLP158 T01820095
Conditions at: KAFF (USAF ACADEMY/COS, CO, US) observed 0358 UTC 22 July 2014
Temperature: 18.2°C (65°F)
Dewpoint: 9.5°C (49°F) [RH = 57%]
Pressure (altimeter): 30.28 inches Hg (1025.5 mb[Sea-level pressure: 1015.8 mb]
Winds: from the N (350 degrees) at 9 MPH (8 knots; 4.2 m/s)
Visibility: 10 or more miles (16+ km)
Ceiling: at least 12,000 feet AGL
Clouds: sky clear below 12,000 feet AGL
Weather: automated observation with no human augmentation;
there may or may not be significant weather present at this time

METAR text: KAFF 220258Z AUTO VRB01KT 10SM CLR 22/09 A3026 RMK AO2 SLP144 T02240093 50003
Conditions at: KAFF (USAF ACADEMY/COS, CO, US) observed 0258 UTC 22 July 2014
Temperature: 22.4°C (72°F)
Dewpoint: 9.3°C (49°F) [RH = 43%]
Pressure (altimeter): 30.26 inches Hg (1024.8 mb[Sea-level pressure: 1014.4 mb]
Winds: variable direction winds at 1 MPH (1 knots; 0.5 m/s)
Visibility: 10 or more miles (16+ km)
Ceiling: at least 12,000 feet AGL
Clouds: sky clear below 12,000 feet AGL
Weather: automated observation with no human augmentation;
there may or may not be significant weather present at this time

METAR text: KAFF 220158Z AUTO 33006KT 10SM CLR 24/08 A3026 RMK AO2 SLP144 T02430079
Conditions at: KAFF (USAF ACADEMY/COS, CO, US) observed 0158 UTC 22 July 2014
Temperature: 24.3°C (76°F)
Dewpoint: 7.9°C (46°F) [RH = 35%]
Pressure (altimeter): 30.26 inches Hg (1024.8 mb[Sea-level pressure: 1014.4 mb]
Winds: from the NNW (330 degrees) at 7 MPH (6 knots; 3.1 m/s)
Visibility: 10 or more miles (16+ km)
Ceiling: at least 12,000 feet AGL
Clouds: sky clear below 12,000 feet AGL
Weather: automated observation with no human augmentation;
there may or may not be significant weather present at this time

METAR text: KAFF 220058Z AUTO 15007KT 10SM CLR 26/07 A3025 RMK AO2 SLP141 T02630069
Conditions at: KAFF (USAF ACADEMY/COS, CO, US) observed 0058 UTC 22 July 2014
Temperature: 26.3°C (79°F)
Dewpoint: 6.9°C (44°F) [RH = 29%]
Pressure (altimeter): 30.25 inches Hg (1024.5 mb[Sea-level pressure: 1014.1 mb]
Winds: from the SSE (150 degrees) at 8 MPH (7 knots; 3.6 m/s)
Visibility: 10 or more miles (16+ km)
Ceiling: at least 12,000 feet AGL
Clouds: sky clear below 12,000 feet AGL
Weather: automated observation with no human augmentation;
there may or may not be significant weather present at this time

METAR text: KAFF 212358Z AUTO 15016KT 10SM CLR 28/06 A3024 RMK AO2 SLP131 T02830057 10306 20283 56005
Conditions at: KAFF (USAF ACADEMY/COS, CO, US) observed 2358 UTC 21 July 2014
Temperature: 28.3°C (83°F)
Dewpoint: 5.7°C (42°F) [RH = 24%]
Pressure (altimeter): 30.24 inches Hg (1024.1 mb[Sea-level pressure: 1013.1 mb]
Winds: from the SSE (150 degrees) at 18 MPH (16 knots; 8.3 m/s)
Visibility: 10 or more miles (16+ km)
Ceiling: at least 12,000 feet AGL
Clouds: sky clear below 12,000 feet AGL
Weather: automated observation with no human augmentation;
there may or may not be significant weather present at this time

METAR text: KAFF 212258Z AUTO 15013KT 10SM FEW170 30/06 A3024 RMK AO2 SLP141 T02960056
Conditions at: KAFF (USAF ACADEMY/COS, CO, US) observed 2258 UTC 21 July 2014
Temperature: 29.6°C (85°F)
Dewpoint: 5.6°C (42°F) [RH = 22%]
Pressure (altimeter): 30.24 inches Hg (1024.1 mb[Sea-level pressure: 1014.1 mb]
Winds: from the SSE (150 degrees) at 15 MPH (13 knots; 6.8 m/s)
Visibility: 10 or more miles (16+ km)
Ceiling: at least 12,000 feet AGL
Clouds: few clouds at 17000 feet AGL
Weather: automated observation with no human augmentation;
there may or may not be significant weather present at this time

METAR text: KAFF 212158Z AUTO 17009G16KT 10SM FEW180 30/06 A3024 RMK AO2 SLP144 T02960055
Conditions at: KAFF (USAF ACADEMY/COS, CO, US) observed 2158 UTC 21 July 2014
Temperature: 29.6°C (85°F)
Dewpoint: 5.5°C (42°F) [RH = 22%]
Pressure (altimeter): 30.24 inches Hg (1024.1 mb[Sea-level pressure: 1014.4 mb]
Winds: from the S (170 degrees) at 10 MPH (9 knots; 4.7 m/sgusting to 18 MPH (16 knots; 8.3 m/s)
Visibility: 10 or more miles (16+ km)
Ceiling: at least 12,000 feet AGL
Clouds: few clouds at 18000 feet AGL
Weather: automated observation with no human augmentation;
there may or may not be significant weather present at this time

METAR text: KAFF 212058Z AUTO 18011KT 10SM FEW190 30/08 A3025 RMK AO2 SLP147 T03040077 58007
Conditions at: KAFF (USAF ACADEMY/COS, CO, US) observed 2058 UTC 21 July 2014
Temperature: 30.4°C (87°F)
Dewpoint: 7.7°C (46°F) [RH = 24%]
Pressure (altimeter): 30.25 inches Hg (1024.5 mb[Sea-level pressure: 1014.7 mb]
Winds: from the S (180 degrees) at 13 MPH (11 knots; 5.7 m/s)
Visibility: 10 or more miles (16+ km)
Ceiling: at least 12,000 feet AGL
Clouds: few clouds at 19000 feet AGL
Weather: automated observation with no human augmentation;
there may or may not be significant weather present at this time

METAR text: KAFF 211958Z 15011KT 10SM FEW100 SCT140 SCT170 BKN200 29/05 A3025 RMK AO2A SLP147 T02870049
Conditions at: KAFF (USAF ACADEMY/COS, CO, US) observed 1958 UTC 21 July 2014
Temperature: 28.7°C (84°F)
Dewpoint: 4.9°C (41°F) [RH = 22%]
Pressure (altimeter): 30.25 inches Hg (1024.5 mb[Sea-level pressure: 1014.7 mb]
Winds: from the SSE (150 degrees) at 13 MPH (11 knots; 5.7 m/s)
Visibility: 10 or more miles (16+ km)
Ceiling: 20000 feet AGL
Clouds: few clouds at 10000 feet AGL
scattered clouds at 14000 feet AGL
scattered clouds at 17000 feet AGL
broken clouds at 20000 feet AGL
Weather: no significant weather observed at this time

METAR text: KAFF 211858Z 23006KT 10SM FEW130 SCT150 SCT190 29/06 A3027 RMK AO2A SLP148 T02940060
Conditions at: KAFF (USAF ACADEMY/COS, CO, US) observed 1858 UTC 21 July 2014
Temperature: 29.4°C (85°F)
Dewpoint: 6.0°C (43°F) [RH = 23%]
Pressure (altimeter): 30.27 inches Hg (1025.1 mb[Sea-level pressure: 1014.8 mb]
Winds: from the SW (230 degrees) at 7 MPH (6 knots; 3.1 m/s)
Visibility: 10 or more miles (16+ km)
Ceiling: at least 12,000 feet AGL
Clouds: few clouds at 13000 feet AGL
scattered clouds at 15000 feet AGL
scattered clouds at 19000 feet AGL
Weather: no significant weather observed at this time

METAR text: KAFF 211848Z 23010KT 10SM SCT130 SCT160 SCT190 29/06 A3027 RMK AO2A WSHFT 42
Conditions at: KAFF (USAF ACADEMY/COS, CO, US) observed 1848 UTC 21 July 2014
Temperature: 29.0°C (84°F)
Dewpoint: 6.0°C (43°F) [RH = 23%]
Pressure (altimeter): 30.27 inches Hg (1025.1 mb)
Winds: from the SW (230 degrees) at 12 MPH (10 knots; 5.2 m/s)
Visibility: 10 or more miles (16+ km)
Ceiling: at least 12,000 feet AGL
Clouds: scattered clouds at 13000 feet AGL
scattered clouds at 16000 feet AGL
scattered clouds at 19000 feet AGL
Weather: no significant weather observed at this time

METAR text: KAFF 211758Z 26006KT 10SM FEW130 SCT160 BKN190 29/03 A3027 RMK AO2A SLP148 T02920029 10292 20206 55002
Conditions at: KAFF (USAF ACADEMY/COS, CO, US) observed 1758 UTC 21 July 2014
Temperature: 29.2°C (85°F)
Dewpoint: 2.9°C (37°F) [RH = 19%]
Pressure (altimeter): 30.27 inches Hg (1025.1 mb[Sea-level pressure: 1014.8 mb]
Winds: from the W (260 degrees) at 7 MPH (6 knots; 3.1 m/s)
Visibility: 10 or more miles (16+ km)
Ceiling: 19000 feet AGL
Clouds: few clouds at 13000 feet AGL
scattered clouds at 16000 feet AGL
broken clouds at 19000 feet AGL
Weather: no significant weather observed at this time

METAR text: KAFF 211714Z 02004KT 10SM SCT130 BKN170 28/05 A3027
Conditions at: KAFF (USAF ACADEMY/COS, CO, US) observed 1714 UTC 21 July 2014
Temperature: 28.0°C (82°F)
Dewpoint: 5.0°C (41°F) [RH = 23%]
Pressure (altimeter): 30.27 inches Hg (1025.1 mb)
Winds: from the NNE (20 degrees) at 5 MPH (4 knots; 2.1 m/s)
Visibility: 10 or more miles (16+ km)
Ceiling: 17000 feet AGL
Clouds: scattered clouds at 13000 feet AGL
broken clouds at 17000 feet AGL
Weather: no significant weather observed at this time

METAR text: KAFF 211658Z AUTO VRB06KT 10SM SCT140 BKN170 28/06 A3027 RMK AO2 SLP145 T02770057
Conditions at: KAFF (USAF ACADEMY/COS, CO, US) observed 1658 UTC 21 July 2014
Temperature: 27.7°C (82°F)
Dewpoint: 5.7°C (42°F) [RH = 25%]
Pressure (altimeter): 30.27 inches Hg (1025.1 mb[Sea-level pressure: 1014.5 mb]
Winds: variable direction winds at 7 MPH (6 knots; 3.1 m/s)
Visibility: 10 or more miles (16+ km)
Ceiling: 17000 feet AGL
Clouds: scattered clouds at 14000 feet AGL
broken clouds at 17000 feet AGL
Weather: automated observation with no human augmentation;
there may or may not be significant weather present at this time

METAR text: KAFF 211558Z AUTO 34009KT 10SM FEW140 25/09 A3026 RMK AO2 SLP148 T02480093
Conditions at: KAFF (USAF ACADEMY/COS, CO, US) observed 1558 UTC 21 July 2014
Temperature: 24.8°C (77°F)
Dewpoint: 9.3°C (49°F) [RH = 37%]
Pressure (altimeter): 30.26 inches Hg (1024.8 mb[Sea-level pressure: 1014.8 mb]
Winds: from the NNW (340 degrees) at 10 MPH (9 knots; 4.7 m/s)
Visibility: 10 or more miles (16+ km)
Ceiling: at least 12,000 feet AGL
Clouds: few clouds at 14000 feet AGL
Weather: automated observation with no human augmentation;
there may or may not be significant weather present at this time

METAR text: KAFF 211458Z AUTO VRB06KT 10SM FEW160 SCT190 25/06 A3027 RMK AO2 SLP151 T02500055 52014
Conditions at: KAFF (USAF ACADEMY/COS, CO, US) observed 1458 UTC 21 July 2014
Temperature: 25.0°C (77°F)
Dewpoint: 5.5°C (42°F) [RH = 29%]
Pressure (altimeter): 30.27 inches Hg (1025.1 mb[Sea-level pressure: 1015.1 mb]
Winds: variable direction winds at 7 MPH (6 knots; 3.1 m/s)
Visibility: 10 or more miles (16+ km)
Ceiling: at least 12,000 feet AGL
Clouds: few clouds at 16000 feet AGL
scattered clouds at 19000 feet AGL
Weather: automated observation with no human augmentation;
there may or may not be significant weather present at this time

METAR text: KAFF 211358Z AUTO 33011G16KT 10SM CLR 24/07 A3025 RMK AO2 SLP144 T02380072
Conditions at: KAFF (USAF ACADEMY/COS, CO, US) observed 1358 UTC 21 July 2014
Temperature: 23.8°C (75°F)
Dewpoint: 7.2°C (45°F) [RH = 34%]
Pressure (altimeter): 30.25 inches Hg (1024.5 mb[Sea-level pressure: 1014.4 mb]
Winds: from the NNW (330 degrees) at 13 MPH (11 knots; 5.7 m/sgusting to 18 MPH (16 knots; 8.3 m/s)
Visibility: 10 or more miles (16+ km)
Ceiling: at least 12,000 feet AGL
Clouds: sky clear below 12,000 feet AGL
Weather: automated observation with no human augmentation;
there may or may not be significant weather present at this time